Time;durP1;ratioP1;P1;durP2;ratioP2;P2;SDS_P1;SDS_P2;PMS_P1;PMS_P2;Temp;Humidity;BMP_temperature;BMP_pressure;BME280_temperature;BME280_humidity;BME280_pressure;Samples;Min_cycle;Max_cycle;Signal;HPM_P1;HPM_P2
2022/03/31 00:00:34;;;;;;;5.25;3.97;;;;;;;5.18;69.28;100040.38;5039115;28;20036;-85
2022/03/31 00:03:01;;;;;;;17.27;4.68;;;;;;;5.17;69.17;100046.72;5051446;28;20405;-84
2022/03/31 00:05:27;;;;;;;7.07;4.55;;;;;;;5.10;69.42;100043.56;5049288;28;20483;-85
2022/03/31 00:07:54;;;;;;;8.10;3.92;;;;;;;5.11;69.01;100044.41;5051503;28;20064;-83
2022/03/31 00:10:27;;;;;;;7.55;4.25;;;;;;;5.07;69.77;100040.19;5034752;28;20037;-85
2022/03/31 00:12:54;;;;;;;9.80;5.45;;;;;;;5.02;69.42;100042.31;5044949;28;20033;-85
2022/03/31 00:15:21;;;;;;;7.00;4.50;;;;;;;4.96;69.78;100032.78;5035069;28;20028;-83
2022/03/31 00:17:47;;;;;;;8.18;5.07;;;;;;;4.99;69.48;100042.47;5050177;28;20131;-83
2022/03/31 00:34:54;;;;;;;9.48;5.50;;;;;;;4.98;69.43;100041.63;5029852;28;20045;-86
2022/03/31 00:37:43;;;;;;;13.55;6.32;;;;;;;4.98;69.40;100047.00;5033236;28;20372;-85
2022/03/31 00:40:11;;;;;;;7.38;5.53;;;;;;;4.99;71.54;100045.19;5040001;28;20040;-85
2022/03/31 00:42:47;;;;;;;8.35;5.28;;;;;;;4.97;70.76;100042.59;5050646;28;20098;-83
2022/03/31 00:45:20;;;;;;;9.18;5.82;;;;;;;4.92;71.04;100031.22;5049115;28;20040;-87
2022/03/31 00:47:47;;;;;;;12.32;5.75;;;;;;;4.94;71.39;100039.22;5050220;28;20024;-85
2022/03/31 00:50:13;;;;;;;11.75;6.80;;;;;;;4.92;71.60;100041.16;5019573;28;20026;-85
2022/03/31 00:52:40;;;;;;;10.27;6.43;;;;;;;4.93;71.90;100043.75;5046685;28;20068;-85
2022/03/31 00:55:06;;;;;;;12.63;6.40;;;;;;;4.90;72.31;100041.25;5033936;28;20110;-84
2022/03/31 00:57:33;;;;;;;9.55;6.43;;;;;;;4.91;72.63;100042.13;5050626;28;20132;-83
2022/03/31 00:59:59;;;;;;;10.40;5.93;;;;;;;4.85;72.77;100032.59;5026559;28;20029;-85
2022/03/31 01:02:32;;;;;;;9.00;5.72;;;;;;;4.91;72.56;100040.28;5029613;28;20040;-83
2022/03/31 01:05:01;;;;;;;9.43;5.50;;;;;;;4.91;72.95;100036.72;5028143;28;20024;-86
2022/03/31 01:07:27;;;;;;;13.35;7.13;;;;;;;4.90;71.69;100035.00;5046293;28;20045;-84
2022/03/31 01:09:54;;;;;;;9.02;5.45;;;;;;;4.85;72.25;100027.19;5029471;28;20047;-86
2022/03/31 01:12:19;;;;;;;9.93;5.47;;;;;;;4.86;71.82;100027.09;5043716;28;20059;-84
2022/03/31 01:14:45;;;;;;;8.07;5.30;;;;;;;4.83;71.99;100023.72;5034606;28;20516;-84
2022/03/31 01:17:11;;;;;;;10.73;6.03;;;;;;;4.79;71.79;100020.34;5050526;28;20498;-84
2022/03/31 01:19:36;;;;;;;10.52;6.00;;;;;;;4.80;71.68;100015.81;5028071;28;20088;-86
2022/03/31 01:22:02;;;;;;;9.65;6.20;;;;;;;4.71;71.89;100008.28;5056808;28;20025;-85
2022/03/31 01:24:28;;;;;;;11.05;6.32;;;;;;;4.74;72.62;100019.75;5048192;28;20052;-85
2022/03/31 01:26:54;;;;;;;9.57;6.07;;;;;;;4.71;72.67;100016.38;5033103;28;20029;-86
2022/03/31 01:29:21;;;;;;;8.55;6.05;;;;;;;4.69;72.69;100019.19;5026431;28;20025;-87
2022/03/31 01:31:47;;;;;;;12.68;6.32;;;;;;;4.65;73.39;100016.75;5032455;28;20443;-86
2022/03/31 01:34:12;;;;;;;12.18;7.70;;;;;;;4.60;73.50;100017.91;5045166;28;20033;-87
2022/03/31 01:36:38;;;;;;;16.52;8.35;;;;;;;4.50;73.94;99999.72;5034380;28;20500;-84
2022/03/31 01:39:04;;;;;;;12.80;7.28;;;;;;;4.50;73.96;100014.06;5032761;28;20029;-85
2022/03/31 01:41:31;;;;;;;10.85;6.60;;;;;;;4.48;74.26;100015.97;5029257;28;20025;-86
2022/03/31 01:43:56;;;;;;;11.40;6.63;;;;;;;4.45;74.59;100021.53;5032740;28;20064;-84
2022/03/31 01:46:22;;;;;;;16.17;7.97;;;;;;;4.43;75.13;100011.81;5047826;28;20112;-85
2022/03/31 01:48:48;;;;;;;14.23;8.32;;;;;;;4.36;75.89;100011.31;5030741;28;20029;-88
2022/03/31 01:51:14;;;;;;;11.95;7.05;;;;;;;4.41;75.01;100006.53;5030240;28;20041;-85
2022/03/31 01:53:40;;;;;;;12.02;7.32;;;;;;;4.33;75.51;100006.97;5047438;28;20045;-89
2022/03/31 01:56:06;;;;;;;12.77;7.53;;;;;;;4.33;75.63;100006.13;5049687;28;20451;-84
2022/03/31 01:58:32;;;;;;;12.40;6.88;;;;;;;4.33;76.25;100006.97;5046563;28;20057;-84
2022/03/31 02:00:58;;;;;;;11.57;6.75;;;;;;;4.30;76.72;100001.78;5047565;28;20048;-87
2022/03/31 02:03:25;;;;;;;15.38;7.60;;;;;;;4.27;76.53;100001.09;5044598;28;20041;-84
2022/03/31 02:05:51;;;;;;;14.38;7.65;;;;;;;4.24;76.94;100001.28;5032799;28;20029;-87
2022/03/31 02:08:17;;;;;;;14.80;7.57;;;;;;;4.21;77.67;99993.41;5048470;28;20049;-87
2022/03/31 02:10:43;;;;;;;11.82;7.50;;;;;;;4.20;77.47;99991.69;5029075;28;20083;-88
2022/03/31 02:13:09;;;;;;;15.65;7.80;;;;;;;4.15;77.83;99985.69;5029128;28;20073;-88
2022/03/31 02:15:34;;;;;;;12.38;7.53;;;;;;;4.15;77.92;99994.66;5030256;28;20043;-85
2022/03/31 02:18:02;;;;;;;14.68;7.78;;;;;;;4.12;78.21;99983.19;5031497;28;20032;-88
2022/03/31 02:20:30;;;;;;;13.55;7.53;;;;;;;4.10;77.80;99980.56;5039972;28;20028;-85
2022/03/31 02:23:00;;;;;;;11.30;6.10;;;;;;;4.04;77.95;99983.63;5042656;28;20033;-85
2022/03/31 02:25:28;;;;;;;11.82;7.28;;;;;;;3.98;79.23;99984.00;5038042;28;20041;-88
2022/03/31 02:27:53;;;;;;;15.85;8.32;;;;;;;3.94;79.12;99982.44;5046963;28;20124;-85
2022/03/31 02:30:20;;;;;;;16.60;8.55;;;;;;;3.86;80.06;99982.91;5038241;28;20176;-85
2022/03/31 02:32:45;;;;;;;11.50;7.13;;;;;;;3.88;80.83;99985.53;5041613;28;20033;-87
2022/03/31 02:35:11;;;;;;;12.93;7.18;;;;;;;3.80;81.03;99972.50;5042715;28;20218;-86
2022/03/31 02:37:37;;;;;;;14.35;7.80;;;;;;;3.79;82.17;99973.47;5036876;28;20469;-85
2022/03/31 02:40:05;;;;;;;12.73;7.15;;;;;;;3.73;82.99;99974.69;5031359;28;20548;-87
2022/03/31 02:42:31;;;;;;;10.80;7.68;;;;;;;3.69;83.34;99962.38;5041720;28;20052;-85
2022/03/31 02:44:57;;;;;;;13.80;7.40;;;;;;;3.65;84.50;99962.66;5045215;28;20017;-86
2022/03/31 02:47:23;;;;;;;11.63;6.20;;;;;;;3.63;83.63;99969.91;5029671;28;20395;-86
2022/03/31 02:49:48;;;;;;;12.43;7.00;;;;;;;3.54;84.74;99961.44;5026933;28;20021;-86
2022/03/31 02:52:14;;;;;;;14.10;9.15;;;;;;;3.48;84.87;99960.91;5046962;28;20050;-84
2022/03/31 02:57:23;;;;;;;11.10;6.97;;;;;;;3.43;84.59;99955.81;5040432;28;20040;-85
2022/03/31 02:59:48;;;;;;;10.25;6.32;;;;;;;3.31;84.98;99956.50;5026700;28;20036;-87
2022/03/31 03:02:14;;;;;;;9.10;5.65;;;;;;;3.22;85.31;99948.97;5035616;28;20099;-85
2022/03/31 03:04:39;;;;;;;8.90;6.40;;;;;;;3.14;85.57;99945.84;5030223;28;20059;-86
2022/03/31 03:07:05;;;;;;;10.80;5.57;;;;;;;3.06;85.50;99952.50;5030987;28;20048;-85
2022/03/31 03:09:31;;;;;;;6.75;5.38;;;;;;;3.02;85.35;99950.94;5047383;28;20567;-85
2022/03/31 03:11:57;;;;;;;8.88;4.45;;;;;;;2.99;85.16;99945.75;5046907;28;20037;-85
2022/03/31 03:14:22;;;;;;;6.13;4.53;;;;;;;2.92;86.18;99948.88;5029300;28;20028;-88
2022/03/31 03:16:48;;;;;;;6.32;4.63;;;;;;;2.89;85.59;99946.34;5047030;28;20247;-86
2022/03/31 03:19:13;;;;;;;6.35;4.60;;;;;;;2.83;85.57;99944.00;5040841;28;20028;-85
2022/03/31 03:21:39;;;;;;;6.47;4.28;;;;;;;2.76;86.08;99947.03;5014746;28;20067;-86
2022/03/31 03:24:05;;;;;;;7.55;4.85;;;;;;;2.74;86.37;99953.41;5020066;28;20033;-85
2022/03/31 03:26:31;;;;;;;6.40;4.47;;;;;;;2.70;86.14;99947.34;5029978;28;20037;-85
2022/03/31 03:28:56;;;;;;;5.03;4.22;;;;;;;2.68;85.53;99949.25;5026239;28;20464;-86
2022/03/31 03:31:22;;;;;;;5.93;3.67;;;;;;;2.63;85.90;99950.47;5022948;28;20039;-85
2022/03/31 03:33:47;;;;;;;4.55;3.55;;;;;;;2.62;85.91;99951.44;5043755;28;20108;-89
2022/03/31 03:36:19;;;;;;;5.07;3.65;;;;;;;2.61;85.72;99949.66;5040753;28;20040;-87
2022/03/31 03:38:45;;;;;;;4.32;3.42;;;;;;;2.52;86.19;99943.88;5046739;28;20404;-84
2022/03/31 03:41:12;;;;;;;4.32;3.60;;;;;;;2.54;86.18;99943.78;5029451;28;20068;-88
2022/03/31 03:43:42;;;;;;;5.78;4.13;;;;;;;2.50;86.03;99947.56;5047948;28;20392;-86
2022/03/31 03:46:08;;;;;;;5.25;3.63;;;;;;;2.49;85.76;99951.22;5028222;28;20033;-87
2022/03/31 03:48:34;;;;;;;6.25;3.72;;;;;;;2.42;85.77;99950.66;5030248;28;20075;-85
2022/03/31 03:50:59;;;;;;;4.60;3.40;;;;;;;2.39;86.16;99956.19;5025529;28;20447;-86
2022/03/31 03:53:25;;;;;;;6.30;3.95;;;;;;;2.42;86.18;99956.03;5035994;28;20037;-85
2022/03/31 03:55:51;;;;;;;4.85;3.58;;;;;;;2.36;85.37;99950.13;5031494;28;20033;-86
2022/03/31 03:58:17;;;;;;;5.13;3.67;;;;;;;2.29;85.75;99955.81;5031569;28;20100;-86
2022/03/31 04:00:43;;;;;;;5.20;3.65;;;;;;;2.16;86.04;99960.09;5034066;28;20412;-85
2022/03/31 04:03:09;;;;;;;5.97;3.45;;;;;;;2.10;86.07;99959.53;5025855;28;20045;-85
2022/03/31 04:05:34;;;;;;;4.35;3.35;;;;;;;1.94;86.89;99960.31;5028536;28;20033;-87
2022/03/31 04:08:00;;;;;;;5.15;3.20;;;;;;;1.92;87.12;99950.63;5046881;28;20041;-90
2022/03/31 04:10:25;;;;;;;4.25;2.85;;;;;;;1.91;86.46;99949.78;5042578;28;20029;-87
2022/03/31 04:12:51;;;;;;;3.95;2.90;;;;;;;1.88;86.59;99944.56;5048573;28;20079;-89
2022/03/31 04:15:16;;;;;;;4.38;3.60;;;;;;;1.84;87.47;99953.72;5041436;28;20036;-84
2022/03/31 04:17:43;;;;;;;5.28;3.40;;;;;;;1.78;87.41;99951.34;5045403;28;20112;-85
2022/03/31 04:20:11;;;;;;;4.35;3.00;;;;;;;1.81;87.08;99961.03;5026493;28;20057;-85
2022/03/31 04:22:37;;;;;;;3.10;2.70;;;;;;;1.74;87.40;99952.44;5046540;28;20113;-87
2022/03/31 04:25:04;;;;;;;4.78;3.30;;;;;;;1.68;87.90;99950.94;5038103;28;20107;-85
2022/03/31 04:27:29;;;;;;;3.50;3.03;;;;;;;1.61;87.74;99954.88;5024891;28;20037;-86
2022/03/31 04:29:55;;;;;;;4.85;3.15;;;;;;;1.68;88.07;99963.44;5027432;28;20485;-85
2022/03/31 04:32:20;;;;;;;2.97;2.75;;;;;;;1.67;87.67;99959.03;5038263;28;20037;-85
2022/03/31 04:34:45;;;;;;;3.97;3.20;;;;;;;1.61;87.80;99962.03;5033353;28;20036;-84
2022/03/31 04:37:11;;;;;;;3.88;2.47;;;;;;;1.59;87.39;99959.44;5034414;28;20048;-84
2022/03/31 04:39:36;;;;;;;2.97;2.35;;;;;;;1.53;87.33;99957.03;5038027;28;20078;-84
2022/03/31 04:42:02;;;;;;;2.42;2.00;;;;;;;1.53;87.55;99954.38;5032266;28;20123;-83
2022/03/31 04:44:28;;;;;;;2.53;2.30;;;;;;;1.51;87.67;99964.31;5028297;28;20183;-89
2022/03/31 04:46:53;;;;;;;2.90;2.30;;;;;;;1.46;88.04;99955.63;5048477;28;20123;-84
2022/03/31 04:49:19;;;;;;;2.38;2.00;;;;;;;1.48;88.32;99961.78;5042764;28;20040;-91
2022/03/31 04:51:44;;;;;;;2.83;2.60;;;;;;;1.48;88.44;99964.44;5045418;28;20059;-85
2022/03/31 04:54:09;;;;;;;3.63;2.80;;;;;;;1.46;88.11;99961.00;5032453;28;20053;-85
2022/03/31 04:56:35;;;;;;;3.97;2.55;;;;;;;1.49;88.65;99972.44;5028665;28;20077;-85
2022/03/31 04:59:00;;;;;;;2.92;2.63;;;;;;;1.49;88.64;99969.75;5038797;28;20033;-85
2022/03/31 05:01:25;;;;;;;3.63;2.90;;;;;;;1.52;88.45;99971.41;5027662;28;20760;-84
2022/03/31 05:03:54;;;;;;;2.63;2.17;;;;;;;1.49;87.90;99964.41;5035031;28;20388;-86
2022/03/31 05:06:20;;;;;;;3.63;2.90;;;;;;;1.46;88.06;99969.91;5048794;28;20055;-84
2022/03/31 05:08:45;;;;;;;4.18;2.50;;;;;;;1.49;88.09;99974.22;5021303;28;20046;-85
2022/03/31 05:11:11;;;;;;;3.13;2.30;;;;;;;1.48;88.55;99967.13;5045184;28;20040;-85
2022/03/31 05:13:36;;;;;;;5.68;2.88;;;;;;;1.46;88.52;99963.66;5015783;28;20024;-85
2022/03/31 05:16:02;;;;;;;3.90;2.53;;;;;;;1.46;88.35;99972.56;5021850;28;20037;-84
2022/03/31 05:18:27;;;;;;;3.67;2.92;;;;;;;1.37;88.76;99970.34;5030571;28;20035;-83
2022/03/31 05:20:53;;;;;;;3.38;2.00;;;;;;;1.43;88.10;99972.72;5034474;28;20048;-84
2022/03/31 05:23:18;;;;;;;2.80;2.05;;;;;;;1.35;88.13;99969.53;5032700;28;20025;-85
2022/03/31 05:25:44;;;;;;;2.20;1.98;;;;;;;1.30;88.11;99974.25;5047561;28;20037;-85
2022/03/31 05:28:11;;;;;;;3.30;2.13;;;;;;;1.26;88.51;99978.06;5031706;28;20024;-86
2022/03/31 05:30:37;;;;;;;3.65;2.47;;;;;;;1.19;88.35;99966.75;5046229;28;20124;-84
2022/03/31 05:33:03;;;;;;;2.85;2.45;;;;;;;1.15;87.93;99967.81;5048113;28;20108;-87
2022/03/31 05:35:29;;;;;;;4.45;1.90;;;;;;;1.04;88.37;99959.44;5028026;28;20136;-85
2022/03/31 05:37:54;;;;;;;3.28;2.17;;;;;;;0.96;88.66;99962.47;5047325;28;20040;-83
2022/03/31 05:40:20;;;;;;;2.47;1.83;;;;;;;0.89;88.25;99958.38;5029049;28;20025;-83
2022/03/31 05:42:46;;;;;;;3.13;2.38;;;;;;;0.84;89.28;99967.53;5047942;28;20129;-84
2022/03/31 05:45:12;;;;;;;3.15;2.30;;;;;;;0.84;89.06;99979.13;5026752;28;20123;-83
2022/03/31 05:47:40;;;;;;;2.80;2.20;;;;;;;0.80;88.59;99974.88;5031269;28;20029;-82
2022/03/31 05:50:08;;;;;;;4.50;2.67;;;;;;;0.76;88.89;99978.63;5044809;28;20098;-84
2022/03/31 05:52:34;;;;;;;3.45;2.20;;;;;;;0.72;89.07;99977.00;5025141;28;20075;-83
2022/03/31 05:55:00;;;;;;;2.45;1.88;;;;;;;0.68;88.96;99978.09;5041773;28;20040;-83
2022/03/31 05:57:25;;;;;;;2.85;2.30;;;;;;;0.65;88.96;99972.88;5038760;28;20108;-82
2022/03/31 05:59:51;;;;;;;2.05;1.80;;;;;;;0.67;89.13;99976.38;5017955;28;20178;-84
2022/03/31 06:02:16;;;;;;;3.17;2.10;;;;;;;0.66;89.34;99980.00;5023850;28;20248;-81
2022/03/31 06:04:42;;;;;;;3.05;2.13;;;;;;;0.68;89.30;99980.78;5053621;28;20033;-82
2022/03/31 06:07:08;;;;;;;2.78;1.75;;;;;;;0.64;89.91;99966.66;5045329;28;20028;-81
2022/03/31 06:09:34;;;;;;;3.75;1.90;;;;;;;0.65;90.43;99975.53;5048205;28;20124;-87
2022/03/31 06:11:59;;;;;;;2.28;1.70;;;;;;;0.67;89.50;99962.97;5040239;28;20113;-82
2022/03/31 06:14:25;;;;;;;2.08;1.70;;;;;;;0.68;89.37;99962.91;5041408;28;20049;-81
2022/03/31 06:16:50;;;;;;;2.40;2.20;;;;;;;0.67;89.39;99963.84;5044076;28;20579;-84
2022/03/31 06:19:16;;;;;;;2.83;2.00;;;;;;;0.67;89.57;99965.66;5043104;28;20013;-83
2022/03/31 06:21:41;;;;;;;3.85;2.28;;;;;;;0.68;90.61;99968.25;5044132;28;20040;-80
2022/03/31 06:24:07;;;;;;;2.65;2.15;;;;;;;0.68;90.48;99967.38;5044958;28;20087;-82
2022/03/31 06:26:33;;;;;;;3.40;2.60;;;;;;;0.71;90.39;99968.13;5044203;28;20039;-87
2022/03/31 06:28:59;;;;;;;2.88;2.47;;;;;;;0.73;90.72;99979.63;5030642;28;20139;-82
2022/03/31 06:31:25;;;;;;;3.83;2.47;;;;;;;0.75;90.39;99977.75;5041445;28;20040;-81
2022/03/31 06:33:51;;;;;;;5.30;2.80;;;;;;;0.76;90.29;99973.25;5041450;28;20037;-82
2022/03/31 06:36:17;;;;;;;3.92;2.80;;;;;;;0.75;90.48;99974.22;5041684;28;20400;-81
2022/03/31 06:38:43;;;;;;;3.60;2.88;;;;;;;0.75;90.36;99975.06;5047203;28;20024;-81
2022/03/31 06:41:17;;;;;;;3.67;2.53;;;;;;;0.75;89.73;99982.25;5018656;28;20491;-82
2022/03/31 06:43:45;;;;;;;4.70;3.00;;;;;;;0.73;91.02;99981.44;5030140;28;20035;-82
2022/03/31 06:46:11;;;;;;;8.40;2.95;;;;;;;0.72;90.79;99975.22;5046255;28;20083;-85
2022/03/31 06:48:39;;;;;;;5.03;3.42;;;;;;;0.74;90.85;99981.34;5017071;28;20067;-81
2022/03/31 06:51:05;;;;;;;3.75;2.70;;;;;;;0.79;90.13;99980.25;5042873;28;20094;-85
2022/03/31 06:53:31;;;;;;;4.38;3.65;;;;;;;0.75;91.43;99979.56;5042576;28;20088;-82
2022/03/31 06:55:57;;;;;;;4.50;3.47;;;;;;;0.76;91.30;99982.16;5027829;28;20025;-81
2022/03/31 06:58:25;;;;;;;3.53;2.72;;;;;;;0.82;90.64;99981.00;5037767;28;20328;-81
2022/03/31 07:00:51;;;;;;;4.82;3.38;;;;;;;0.81;91.00;99983.75;5029144;28;20033;-81
2022/03/31 07:03:17;;;;;;;5.35;4.28;;;;;;;0.75;90.68;99979.56;5043080;28;20255;-82
2022/03/31 07:05:42;;;;;;;5.22;3.63;;;;;;;0.76;91.32;99982.16;5023597;28;20123;-81
2022/03/31 07:08:07;;;;;;;5.47;4.13;;;;;;;0.80;90.93;99988.25;5035758;28;20049;-81
2022/03/31 07:10:34;;;;;;;6.05;3.88;;;;;;;0.76;91.34;99968.78;5037322;28;20116;-82
2022/03/31 07:13:00;;;;;;;4.72;3.20;;;;;;;0.83;90.67;99973.84;5023779;28;20535;-86
2022/03/31 07:15:27;;;;;;;5.55;3.97;;;;;;;0.81;90.64;99971.25;5038413;28;20021;-81
2022/03/31 07:17:54;;;;;;;6.55;4.70;;;;;;;0.84;90.93;99973.78;5044450;28;20039;-81
2022/03/31 07:20:21;;;;;;;4.75;3.53;;;;;;;0.88;90.80;99974.47;5043056;28;20170;-82
2022/03/31 07:22:47;;;;;;;6.47;3.80;;;;;;;0.87;90.92;99965.59;5040898;28;20052;-81
2022/03/31 07:25:14;;;;;;;5.22;3.83;;;;;;;0.97;90.92;99976.72;5046494;28;20134;-82
2022/03/31 07:27:40;;;;;;;4.80;3.55;;;;;;;0.97;90.98;99974.91;5046576;28;20067;-87
2022/03/31 07:30:07;;;;;;;5.55;4.13;;;;;;;0.96;91.49;99972.31;5044377;28;20403;-87
2022/03/31 07:32:33;;;;;;;5.03;3.65;;;;;;;0.97;91.53;99976.72;5040467;28;20040;-83
2022/03/31 07:34:59;;;;;;;5.88;4.13;;;;;;;1.01;90.23;99979.19;5012737;28;20086;-81
2022/03/31 07:37:25;;;;;;;5.38;3.65;;;;;;;1.01;91.38;99975.66;5023673;28;20043;-81
2022/03/31 07:39:51;;;;;;;4.65;3.75;;;;;;;1.05;91.66;99976.38;5042336;28;20013;-87
2022/03/31 07:42:16;;;;;;;6.20;4.43;;;;;;;1.13;91.16;99974.22;5039364;28;20503;-81
2022/03/31 07:44:42;;;;;;;4.68;3.85;;;;;;;1.16;90.80;99972.22;5039052;28;20043;-87
2022/03/31 07:47:08;;;;;;;5.57;4.68;;;;;;;1.16;91.13;99969.56;5027192;28;20041;-83
2022/03/31 07:49:33;;;;;;;6.18;3.75;;;;;;;1.27;91.16;99979.78;5040771;28;20037;-81
2022/03/31 07:51:59;;;;;;;4.60;3.70;;;;;;;1.25;91.27;99971.78;5036026;28;20527;-81
2022/03/31 07:54:24;;;;;;;5.25;3.40;;;;;;;1.35;90.63;99969.53;5021480;28;20353;-80
2022/03/31 07:56:50;;;;;;;4.10;3.47;;;;;;;1.42;91.09;99970.13;5038185;28;20772;-81
2022/03/31 07:59:21;;;;;;;4.65;3.10;;;;;;;1.43;90.45;99972.72;5036615;28;20088;-83
2022/03/31 08:01:47;;;;;;;3.72;3.30;;;;;;;1.43;90.89;99971.84;5045280;28;20074;-81
2022/03/31 08:04:13;;;;;;;5.00;3.30;;;;;;;1.42;90.70;99972.81;5043532;28;20048;-80
2022/03/31 08:06:39;;;;;;;4.65;3.53;;;;;;;1.44;90.81;99968.22;5042474;28;20029;-82
2022/03/31 08:09:05;;;;;;;3.78;3.15;;;;;;;1.46;90.90;99964.53;5045027;28;20040;-81
2022/03/31 08:11:30;;;;;;;4.10;2.90;;;;;;;1.51;90.60;99964.31;5045693;28;20392;-82
2022/03/31 08:13:56;;;;;;;3.20;2.85;;;;;;;1.51;89.84;99975.03;5043161;28;20037;-81
2022/03/31 08:16:22;;;;;;;3.75;2.65;;;;;;;1.50;90.09;99968.81;5043541;28;20041;-86
2022/03/31 08:18:47;;;;;;;4.20;3.30;;;;;;;1.47;90.46;99958.22;5049277;28;20052;-82
2022/03/31 08:21:13;;;;;;;3.83;2.72;;;;;;;1.52;90.89;99974.09;5047924;28;20519;-83
2022/03/31 08:23:39;;;;;;;5.15;3.53;;;;;;;1.52;90.73;99961.53;5033538;28;20025;-84
2022/03/31 08:26:05;;;;;;;5.70;2.88;;;;;;;1.60;90.69;99966.53;5047294;28;20073;-83
2022/03/31 08:28:31;;;;;;;4.35;3.67;;;;;;;1.63;90.11;99960.13;5045541;28;20396;-81
2022/03/31 08:30:57;;;;;;;9.88;5.03;;;;;;;1.66;89.70;99955.50;5041252;28;20037;-80
2022/03/31 08:33:22;;;;;;;10.18;5.13;;;;;;;1.70;90.40;99957.09;5022418;28;20025;-81
2022/03/31 08:35:47;;;;;;;8.85;5.47;;;;;;;1.77;90.19;99960.31;5044546;28;20082;-81
2022/03/31 08:38:13;;;;;;;12.65;6.80;;;;;;;1.81;90.04;99963.72;5049048;28;20686;-81
2022/03/31 08:40:38;;;;;;;10.38;6.30;;;;;;;1.90;89.93;99958.75;5047644;28;20060;-82
2022/03/31 08:43:04;;;;;;;6.88;5.45;;;;;;;1.96;89.73;99966.50;5028626;28;20032;-83
2022/03/31 08:45:34;;;;;;;6.25;4.05;;;;;;;1.98;89.34;99956.53;5048088;28;20083;-83
2022/03/31 08:48:01;;;;;;;5.03;4.10;;;;;;;2.03;89.53;99962.53;5031558;28;20036;-83
2022/03/31 08:50:27;;;;;;;5.63;3.80;;;;;;;2.02;88.58;99965.31;5047946;28;20135;-81
2022/03/31 08:52:53;;;;;;;3.88;3.17;;;;;;;2.02;89.36;99970.69;5046128;28;20037;-80
2022/03/31 08:55:19;;;;;;;4.47;3.28;;;;;;;2.03;88.97;99969.72;5046267;28;20494;-81
2022/03/31 08:57:48;;;;;;;3.67;2.95;;;;;;;2.15;88.50;99978.97;5023581;28;20103;-82
2022/03/31 09:00:15;;;;;;;5.78;3.90;;;;;;;2.15;88.13;99978.97;5040692;28;20029;-80
2022/03/31 09:02:52;;;;;;;4.15;2.92;;;;;;;2.18;87.60;99976.09;5037954;28;20059;-81
2022/03/31 09:05:17;;;;;;;5.20;3.72;;;;;;;2.22;87.92;99977.69;5045454;28;20033;-81
2022/03/31 09:07:56;;;;;;;5.07;4.10;;;;;;;2.26;89.48;99974.75;5049069;28;20037;-81
2022/03/31 09:10:36;;;;;;;4.22;3.70;;;;;;;2.37;88.12;99981.38;5045893;28;20408;-81
2022/03/31 09:13:15;;;;;;;6.72;4.50;;;;;;;2.45;89.17;99976.47;5052681;28;20050;-82
2022/03/31 09:15:47;;;;;;;5.30;3.78;;;;;;;2.51;88.67;99981.50;5046467;28;20091;-85
2022/03/31 09:18:17;;;;;;;5.97;3.45;;;;;;;2.56;87.73;99974.06;5041587;28;20049;-80
2022/03/31 09:20:43;;;;;;;4.43;3.15;;;;;;;2.56;87.57;99976.75;5037172;28;20025;-82
2022/03/31 09:23:20;;;;;;;4.45;3.22;;;;;;;2.52;87.07;99978.75;5020455;28;20029;-84
2022/03/31 09:25:46;;;;;;;4.93;3.45;;;;;;;2.48;87.51;99971.81;5039232;28;20032;-80
2022/03/31 09:28:18;;;;;;;10.00;3.83;;;;;;;2.47;86.68;99975.47;5038894;28;20098;-84
2022/03/31 09:30:51;;;;;;;3.85;3.40;;;;;;;2.49;87.10;99976.22;5032196;28;20041;-82
2022/03/31 09:33:37;;;;;;;3.60;2.80;;;;;;;2.55;86.97;99975.91;5045374;28;20471;-83
2022/03/31 09:36:17;;;;;;;4.22;3.22;;;;;;;2.64;86.61;99985.28;5037316;28;20392;-81
2022/03/31 09:39:05;;;;;;;6.95;3.67;;;;;;;2.70;87.40;99987.63;5039124;28;20103;-85
2022/03/31 09:41:36;;;;;;;3.47;3.15;;;;;;;2.72;87.76;99983.06;5029161;28;20040;-83
2022/03/31 09:44:07;;;;;;;5.40;3.53;;;;;;;2.77;86.18;99983.66;5037672;28;20037;-84
2022/03/31 09:46:35;;;;;;;4.03;3.30;;;;;;;2.74;85.78;99980.28;5044185;28;20043;-82
2022/03/31 09:49:24;;;;;;;3.90;3.17;;;;;;;2.70;86.06;99981.38;5043559;28;20033;-84
2022/03/31 09:51:51;;;;;;;5.18;3.85;;;;;;;2.75;87.17;99979.31;5035216;28;20048;-85
2022/03/31 09:54:17;;;;;;;4.82;3.53;;;;;;;2.76;86.59;99965.84;5041057;28;20147;-81
2022/03/31 09:56:43;;;;;;;5.60;3.17;;;;;;;2.83;85.85;99978.91;5043028;28;20033;-84
2022/03/31 09:59:14;;;;;;;3.90;2.97;;;;;;;2.81;86.18;99989.75;5045914;28;20029;-83
2022/03/31 10:01:40;;;;;;;5.25;3.45;;;;;;;2.84;86.76;99981.50;5044913;28;20039;-83
2022/03/31 10:04:08;;;;;;;3.92;3.33;;;;;;;2.90;86.63;99974.97;5049406;28;20036;-80
2022/03/31 10:06:38;;;;;;;5.22;3.75;;;;;;;2.83;85.51;99968.16;5021541;28;20021;-81
2022/03/31 10:09:07;;;;;;;3.67;2.90;;;;;;;2.84;84.88;99980.66;5026445;28;20060;-81
2022/03/31 10:11:36;;;;;;;4.25;3.28;;;;;;;2.81;85.75;99979.00;5046892;28;20037;-85
2022/03/31 10:14:40;;;;;;;5.63;3.30;;;;;;;2.90;86.01;99977.66;5015421;28;20128;-82
2022/03/31 10:17:10;;;;;;;4.57;3.67;;;;;;;2.93;86.10;99967.56;5034466;28;20033;-86
2022/03/31 10:19:44;;;;;;;5.82;3.47;;;;;;;3.05;86.04;99969.59;5030013;28;20137;-81
2022/03/31 10:25:04;;;;;;;5.30;3.30;;;;;;;3.17;84.86;99970.75;5052639;28;20485;-86
2022/03/31 10:27:32;;;;;;;3.92;3.40;;;;;;;3.23;86.30;99972.22;5037316;28;20453;-82
2022/03/31 10:30:12;;;;;;;3.53;2.88;;;;;;;3.35;85.34;99982.25;5041549;28;20416;-82
2022/03/31 10:32:50;;;;;;;5.07;3.55;;;;;;;3.35;84.17;99973.31;5041994;28;20044;-84
2022/03/31 10:35:39;;;;;;;3.50;3.20;;;;;;;3.26;84.67;99978.28;5038876;28;20048;-82
2022/03/31 10:38:17;;;;;;;5.15;3.50;;;;;;;3.23;84.27;99977.59;5044196;28;20110;-86
2022/03/31 10:40:44;;;;;;;4.05;3.40;;;;;;;3.26;85.50;99980.09;5029506;28;20124;-87
2022/03/31 10:43:20;;;;;;;4.97;3.38;;;;;;;3.21;84.71;99958.84;5044752;28;20116;-82
2022/03/31 10:45:46;;;;;;;3.78;3.17;;;;;;;3.31;84.75;99961.88;5042121;28;20056;-82
2022/03/31 10:48:14;;;;;;;4.22;3.25;;;;;;;3.38;85.16;99959.72;5047764;28;20047;-86
2022/03/31 10:50:40;;;;;;;4.55;3.65;;;;;;;3.44;85.95;99959.34;5037031;28;20105;-83
2022/03/31 10:53:05;;;;;;;5.47;3.88;;;;;;;3.55;85.59;99965.00;5038098;28;20464;-86
2022/03/31 10:55:40;;;;;;;5.03;3.80;;;;;;;3.57;83.45;99963.94;5023971;28;20476;-83
2022/03/31 10:58:07;;;;;;;4.13;3.55;;;;;;;3.61;83.70;99967.34;5033781;28;20040;-81
2022/03/31 11:00:33;;;;;;;5.03;3.45;;;;;;;3.58;83.49;99954.06;5044401;28;20029;-86
2022/03/31 11:02:58;;;;;;;4.53;3.22;;;;;;;3.66;83.70;99962.53;5045396;28;20047;-87
2022/03/31 11:05:25;;;;;;;4.05;3.10;;;;;;;3.72;84.00;99956.81;5043549;28;20791;-82
2022/03/31 11:08:01;;;;;;;4.47;3.50;;;;;;;3.78;83.76;99956.47;5042689;28;20055;-82
2022/03/31 11:10:27;;;;;;;4.60;2.92;;;;;;;3.90;84.22;99957.53;5042716;28;20435;-82
2022/03/31 11:12:52;;;;;;;3.85;3.17;;;;;;;3.98;82.58;99959.78;5038502;28;20033;-82
2022/03/31 11:15:18;;;;;;;3.78;3.03;;;;;;;3.99;82.84;99956.13;5023965;28;20031;-81
2022/03/31 11:17:47;;;;;;;5.88;3.00;;;;;;;4.04;83.50;99949.50;5040610;28;20029;-82
2022/03/31 11:20:19;;;;;;;3.97;3.00;;;;;;;4.16;83.00;99953.31;5026972;28;20040;-81
2022/03/31 11:22:49;;;;;;;;;;;;;;;4.22;82.82;99952.06;5044754;28;20040;-82
2022/03/31 11:25:16;;;;;;;3.47;2.72;;;;;;;4.24;82.49;99947.44;5056848;28;20549;-87
2022/03/31 11:27:43;;;;;;;4.55;3.28;;;;;;;4.27;81.96;99941.88;5038500;28;20043;-85
2022/03/31 11:30:11;;;;;;;3.60;3.30;;;;;;;4.32;82.09;99939.78;5041375;28;20048;-86
2022/03/31 11:32:40;;;;;;;3.17;2.83;;;;;;;4.31;81.71;99936.22;5029060;28;20108;-85
2022/03/31 11:35:12;;;;;;;3.70;3.40;;;;;;;4.26;82.11;99935.63;5038140;28;20174;-87
2022/03/31 11:37:52;;;;;;;3.63;3.23;;;;;;;4.22;82.57;99926.00;5047011;28;20064;-86
2022/03/31 11:40:25;;;;;;;3.63;3.17;;;;;;;4.19;82.06;99936.94;5044491;28;20425;-86
2022/03/31 11:42:54;;;;;;;3.58;3.25;;;;;;;4.16;82.17;99934.47;5043807;28;20427;-82
2022/03/31 11:45:33;;;;;;;3.42;3.00;;;;;;;4.17;81.92;99930.81;5043378;28;20387;-84
2022/03/31 11:48:10;;;;;;;3.65;3.35;;;;;;;4.16;81.88;99923.69;5016682;28;20156;-84
2022/03/31 11:50:47;;;;;;;3.83;3.20;;;;;;;4.20;82.89;99924.38;5042078;28;20108;-84
2022/03/31 11:53:21;;;;;;;3.55;3.25;;;;;;;4.18;82.13;99937.91;5045414;28;20047;-83
2022/03/31 11:56:16;;;;;;;3.80;3.40;;;;;;;4.16;81.96;99930.91;5033927;28;20033;-85
2022/03/31 11:58:53;;;;;;;3.92;3.15;;;;;;;4.16;82.99;99925.53;5034612;28;20028;-81
2022/03/31 12:01:31;;;;;;;4.20;3.42;;;;;;;4.17;83.70;99928.13;5035047;28;20025;-84